createdAt,value
2023-03-04T00:02:06.665Z,14.87
2023-03-04T00:04:35.369Z,23.40
2023-03-04T00:07:03.986Z,33.57
2023-03-04T00:09:33.716Z,20.63
2023-03-04T00:12:02.058Z,23.93
2023-03-04T00:14:30.660Z,22.00
2023-03-04T00:16:59.204Z,16.37
2023-03-04T00:19:27.700Z,20.23
2023-03-04T00:21:56.111Z,17.93
2023-03-04T00:24:25.005Z,15.40
2023-03-04T00:26:54.897Z,22.77
2023-03-04T00:29:23.297Z,17.80
2023-03-04T00:31:51.712Z,19.67
2023-03-04T00:34:20.349Z,21.70
2023-03-04T00:36:49.064Z,21.07
2023-03-04T00:39:19.288Z,20.20
2023-03-04T00:41:47.745Z,15.80
2023-03-04T00:44:17.442Z,18.33
2023-03-04T00:46:45.866Z,17.93
2023-03-04T00:49:14.472Z,19.27
2023-03-04T00:51:42.810Z,17.70
2023-03-04T00:54:11.200Z,12.67
2023-03-04T00:56:40.232Z,17.33
2023-03-04T00:59:08.675Z,13.77
2023-03-04T01:01:38.405Z,13.47
2023-03-04T01:04:06.855Z,14.73
2023-03-04T01:06:35.361Z,17.67
2023-03-04T01:09:03.760Z,14.93
2023-03-04T01:11:32.349Z,9.23
2023-03-04T01:14:00.731Z,19.33
2023-03-04T01:16:29.128Z,15.07
2023-03-04T01:18:58.932Z,20.53
2023-03-04T01:21:27.278Z,19.43
2023-03-04T01:23:57.285Z,25.07
2023-03-04T01:26:25.667Z,18.30
2023-03-04T01:28:54.756Z,17.83
2023-03-04T01:31:23.100Z,21.43
2023-03-04T01:33:53.176Z,19.97
2023-03-04T01:36:23.098Z,15.90
2023-03-04T01:38:51.922Z,18.47
2023-03-04T01:41:26.408Z,25.13
2023-03-04T01:43:57.366Z,15.10
2023-03-04T01:46:26.121Z,13.70
2023-03-04T01:48:54.739Z,12.83
2023-03-04T01:51:24.637Z,17.80
2023-03-04T01:53:55.018Z,16.33
2023-03-04T01:56:25.929Z,8.83
2023-03-04T01:59:13.820Z,12.27
2023-03-04T02:01:45.928Z,19.20
2023-03-04T02:04:15.578Z,18.40
2023-03-04T02:06:46.133Z,11.47
2023-03-04T02:09:15.600Z,17.17
2023-03-04T02:11:45.337Z,16.53
2023-03-04T02:14:14.734Z,17.00
2023-03-04T02:16:43.597Z,13.13
2023-03-04T02:19:20.896Z,12.30
2023-03-04T02:21:50.618Z,12.97
2023-03-04T02:24:27.158Z,18.60
2023-03-04T02:26:56.917Z,17.03
2023-03-04T02:29:25.388Z,11.17
2023-03-04T02:31:55.591Z,15.27
2023-03-04T02:34:28.955Z,12.90
2023-03-04T02:36:58.742Z,18.03
2023-03-04T02:39:33.221Z,11.03
2023-03-04T02:42:04.948Z,18.33
2023-03-04T02:44:38.142Z,16.03
2023-03-04T02:47:09.752Z,11.00
2023-03-04T02:49:41.248Z,17.67
2023-03-04T02:52:14.229Z,19.13
2023-03-04T02:54:43.180Z,9.87
2023-03-04T02:57:15.365Z,19.60
2023-03-04T02:59:47.599Z,21.57
2023-03-04T03:02:20.269Z,26.03
2023-03-04T03:04:48.681Z,15.40
2023-03-04T03:07:19.875Z,11.53
2023-03-04T03:09:48.320Z,13.17
2023-03-04T03:12:18.103Z,13.97
2023-03-04T03:14:46.506Z,14.60
2023-03-04T03:17:18.698Z,15.63
2023-03-04T03:19:48.533Z,17.87
2023-03-04T03:22:17.380Z,15.57
2023-03-04T03:24:45.754Z,11.70
2023-03-04T03:27:14.102Z,11.97
2023-03-04T03:29:43.829Z,15.00
2023-03-04T03:32:12.212Z,14.00
2023-03-04T03:34:40.846Z,12.07
2023-03-04T03:37:10.306Z,12.97
2023-03-04T03:39:38.642Z,15.37
2023-03-04T03:42:07.432Z,13.20
2023-03-04T03:44:35.946Z,20.83
2023-03-04T03:47:05.768Z,11.33
2023-03-04T03:49:34.137Z,10.77
2023-03-04T03:52:02.376Z,19.17
2023-03-04T03:54:30.922Z,19.93
2023-03-04T03:56:59.207Z,18.60
2023-03-04T03:59:27.523Z,12.60
2023-03-04T04:01:56.053Z,10.90
2023-03-04T04:04:26.543Z,12.70
2023-03-04T04:06:54.997Z,15.67
2023-03-04T04:09:23.358Z,12.43
2023-03-04T04:11:51.742Z,11.80
2023-03-04T04:14:20.156Z,13.37
2023-03-04T04:16:48.481Z,18.67
2023-03-04T04:19:21.170Z,12.03
2023-03-04T04:21:51.008Z,13.47
2023-03-04T04:24:19.398Z,17.43
2023-03-04T04:26:47.686Z,17.13
2023-03-04T04:29:18.380Z,10.20
2023-03-04T04:31:46.789Z,9.07
2023-03-04T04:34:15.108Z,12.43
2023-03-04T04:36:43.425Z,13.90
2023-03-04T04:39:13.097Z,17.67
2023-03-04T04:41:44.254Z,14.07
2023-03-04T04:44:14.892Z,8.70
2023-03-04T04:46:44.179Z,20.43
2023-03-04T04:49:12.542Z,11.90
2023-03-04T04:51:41.194Z,17.20
2023-03-04T04:54:09.740Z,14.30
2023-03-04T04:56:39.444Z,14.73
2023-03-04T04:59:08.633Z,11.10
2023-03-04T05:01:37.464Z,9.27
2023-03-04T05:04:06.343Z,9.83
2023-03-04T05:06:34.750Z,14.73
2023-03-04T05:09:03.189Z,12.90
2023-03-04T05:11:31.662Z,12.37
2023-03-04T05:14:01.357Z,9.77
2023-03-04T05:16:29.731Z,12.37
2023-03-04T05:18:58.040Z,16.10
2023-03-04T05:21:26.385Z,12.93
2023-03-04T05:23:54.761Z,11.33
2023-03-04T05:26:23.212Z,9.30
2023-03-04T05:28:51.612Z,15.27
2023-03-04T05:31:21.407Z,9.83
2023-03-04T05:33:49.753Z,11.97
2023-03-04T05:36:18.028Z,12.53
2023-03-04T05:38:46.384Z,7.30
2023-03-04T05:41:14.699Z,11.43
2023-03-04T05:43:44.049Z,18.00
2023-03-04T05:46:16.312Z,9.40
2023-03-04T05:48:46.301Z,14.70
2023-03-04T05:51:14.612Z,24.30
2023-03-04T05:53:43.100Z,11.47
2023-03-04T05:56:14.002Z,11.70
2023-03-04T05:58:42.362Z,17.13
2023-03-04T06:01:11.631Z,11.70
2023-03-04T06:03:40.004Z,11.13
2023-03-04T06:06:10.103Z,12.27
2023-03-04T06:08:38.716Z,13.27
2023-03-04T06:11:07.975Z,8.90
2023-03-04T06:13:38.399Z,13.90
2023-03-04T06:16:07.797Z,8.20
2023-03-04T06:18:36.225Z,17.53
2023-03-04T06:21:05.286Z,15.00
2023-03-04T06:23:34.958Z,14.47
2023-03-04T06:26:03.298Z,11.80
2023-03-04T06:28:31.968Z,11.57
2023-03-04T06:31:00.337Z,18.40
2023-03-04T06:33:28.609Z,15.80
2023-03-04T06:35:58.244Z,17.20
2023-03-04T06:38:28.103Z,11.50
2023-03-04T06:40:57.848Z,14.93
2023-03-04T06:43:26.226Z,18.30
2023-03-04T06:45:54.536Z,18.70
2023-03-04T06:48:22.908Z,19.10
2023-03-04T06:50:51.162Z,15.00
2023-03-04T06:53:19.563Z,17.40
2023-03-04T06:55:49.492Z,15.33
2023-03-04T06:58:19.316Z,20.20
2023-03-04T07:00:47.952Z,18.90
2023-03-04T07:03:16.280Z,13.83
2023-03-04T07:05:44.918Z,13.07
2023-03-04T07:08:13.276Z,17.90
2023-03-04T07:10:41.710Z,12.30
2023-03-04T07:13:10.096Z,24.90
2023-03-04T07:15:40.400Z,12.10
2023-03-04T07:18:08.847Z,10.73
2023-03-04T07:20:37.671Z,10.83
2023-03-04T07:23:06.020Z,11.40
2023-03-04T07:25:34.567Z,13.97
2023-03-04T07:28:03.146Z,19.30
2023-03-04T07:30:31.489Z,16.93
2023-03-04T07:33:01.205Z,13.63
2023-03-04T07:35:29.573Z,11.63
2023-03-04T07:37:57.920Z,9.07
2023-03-04T07:40:26.347Z,20.70
2023-03-04T07:42:57.212Z,13.17
2023-03-04T07:45:28.029Z,15.73
2023-03-04T07:47:56.493Z,28.53
2023-03-04T07:50:26.254Z,14.93
2023-03-04T07:52:54.575Z,9.23
2023-03-04T07:55:22.891Z,19.03
2023-03-04T07:57:51.361Z,9.10
2023-03-04T08:00:21.334Z,13.63
2023-03-04T08:02:49.857Z,16.40
2023-03-04T08:05:18.506Z,10.17
2023-03-04T08:07:48.250Z,11.97
2023-03-04T08:10:16.625Z,14.10
2023-03-04T08:12:45.055Z,12.63
2023-03-04T08:15:13.676Z,21.77
2023-03-04T08:17:42.271Z,5.73
2023-03-04T08:20:13.036Z,18.10
2023-03-04T08:22:41.460Z,18.27
2023-03-04T08:25:11.988Z,10.50
2023-03-04T08:27:40.540Z,11.77
2023-03-04T08:30:10.982Z,15.53
2023-03-04T08:32:39.457Z,7.40
2023-03-04T08:35:08.336Z,15.00
2023-03-04T08:37:36.576Z,5.47
2023-03-04T08:40:05.929Z,7.37
2023-03-04T08:42:35.674Z,12.70
2023-03-04T08:45:04.277Z,8.23
2023-03-04T08:47:32.710Z,14.63
2023-03-04T08:50:01.185Z,9.73
2023-03-04T08:52:31.199Z,9.97
2023-03-04T08:54:59.607Z,23.30
2023-03-04T08:57:28.082Z,10.93
2023-03-04T08:59:57.972Z,12.43
2023-03-04T09:02:26.335Z,6.30
2023-03-04T09:04:54.807Z,10.20
2023-03-04T09:07:23.305Z,9.00
2023-03-04T09:09:51.700Z,11.90
2023-03-04T09:12:20.015Z,6.27
2023-03-04T09:15:01.149Z,10.27
2023-03-04T09:17:38.528Z,6.70
2023-03-04T09:20:10.110Z,7.53
2023-03-04T09:22:38.837Z,9.67
2023-03-04T09:25:12.208Z,4.30
2023-03-04T09:27:41.608Z,12.50
2023-03-04T09:30:12.299Z,5.70
2023-03-04T09:32:42.487Z,3.67
2023-03-04T09:35:11.136Z,4.80
2023-03-04T09:37:41.428Z,11.87
2023-03-04T09:40:17.147Z,8.57
2023-03-04T09:42:49.715Z,4.90
2023-03-04T09:45:22.905Z,6.03
2023-03-04T09:47:55.604Z,5.10
2023-03-04T09:50:24.291Z,5.63
2023-03-04T09:53:15.958Z,4.77
2023-03-04T09:55:47.688Z,6.03
2023-03-04T09:58:35.215Z,4.80
2023-03-04T10:01:12.201Z,2.53
2023-03-04T10:03:48.953Z,6.40
2023-03-04T10:06:20.519Z,3.63
2023-03-04T10:08:58.514Z,3.70
2023-03-04T10:11:31.334Z,7.67
2023-03-04T10:14:17.588Z,3.23
2023-03-04T10:16:50.801Z,2.53
2023-03-04T10:19:33.624Z,1.50
2023-03-04T10:22:02.925Z,4.87
2023-03-04T10:24:32.200Z,4.90
2023-03-04T10:27:08.849Z,4.57
2023-03-04T10:29:37.985Z,3.53
2023-03-04T10:32:06.898Z,6.83
2023-03-04T10:34:36.623Z,4.23
2023-03-04T10:37:08.775Z,4.40
2023-03-04T10:39:43.083Z,4.60
2023-03-04T10:42:29.935Z,3.77
2023-03-04T10:45:01.135Z,5.60
2023-03-04T10:47:32.854Z,6.07
2023-03-04T10:50:06.781Z,3.33
2023-03-04T10:52:41.044Z,4.80
2023-03-04T10:55:18.224Z,3.03
2023-03-04T10:57:51.276Z,4.30
2023-03-04T11:00:29.957Z,7.47
2023-03-04T11:03:29.222Z,4.33
2023-03-04T11:06:20.284Z,4.23
2023-03-04T11:08:56.738Z,4.80
2023-03-04T11:11:34.671Z,6.90
2023-03-04T11:14:12.146Z,5.00
2023-03-04T11:16:40.646Z,3.43
2023-03-04T11:19:17.819Z,7.63
2023-03-04T11:21:49.396Z,5.47
2023-03-04T11:24:29.226Z,5.00
2023-03-04T11:27:06.738Z,2.67
2023-03-04T11:29:43.367Z,4.50
2023-03-04T11:32:20.001Z,11.77
2023-03-04T11:34:54.684Z,3.60
2023-03-04T11:37:32.219Z,2.70
2023-03-04T11:40:08.249Z,4.83
2023-03-04T11:42:42.768Z,4.30
2023-03-04T11:45:27.835Z,6.77
2023-03-04T11:48:10.175Z,4.33
2023-03-04T11:50:49.861Z,7.37
2023-03-04T11:53:52.105Z,3.40
2023-03-04T11:56:32.550Z,3.47
2023-03-04T11:59:34.295Z,4.17
2023-03-04T12:02:19.720Z,5.00
2023-03-04T12:05:22.742Z,4.53
2023-03-04T12:08:33.231Z,7.73
2023-03-04T12:11:09.386Z,5.60
2023-03-04T12:13:58.650Z,7.83
2023-03-04T12:17:13.110Z,4.70
2023-03-04T12:20:00.258Z,6.53
2023-03-04T12:22:41.681Z,9.60
2023-03-04T12:25:33.709Z,4.23
2023-03-04T12:28:27.703Z,7.00
2023-03-04T12:31:37.785Z,7.50
2023-03-04T12:34:43.611Z,5.77
2023-03-04T12:38:02.543Z,5.57
2023-03-04T12:40:39.809Z,3.07
2023-03-04T12:43:47.768Z,3.50
2023-03-04T12:46:35.333Z,5.80
2023-03-04T12:49:42.636Z,3.63
2023-03-04T12:52:23.757Z,5.53
2023-03-04T12:54:58.139Z,5.87
2023-03-04T12:57:31.519Z,6.20
2023-03-04T13:00:16.046Z,4.27
2023-03-04T13:03:01.066Z,5.53
2023-03-04T13:05:57.342Z,7.80
2023-03-04T13:08:39.547Z,3.33
2023-03-04T13:11:53.162Z,4.60
2023-03-04T13:14:36.236Z,3.30
2023-03-04T13:17:43.955Z,2.73
2023-03-04T13:20:36.240Z,4.83
2023-03-04T13:23:23.034Z,1.90
2023-03-04T13:26:08.143Z,3.37
2023-03-04T13:28:38.227Z,6.43
2023-03-04T13:31:22.058Z,3.50
2023-03-04T13:34:04.564Z,5.93
2023-03-04T13:36:56.568Z,3.73
2023-03-04T13:39:37.190Z,4.53
2023-03-04T13:42:41.267Z,4.50
2023-03-04T13:45:36.000Z,5.17
2023-03-04T13:48:09.507Z,6.50
2023-03-04T13:50:49.338Z,8.20
2023-03-04T13:53:42.030Z,7.30
2023-03-04T13:56:37.680Z,9.00
2023-03-04T13:59:26.993Z,13.93
2023-03-04T14:02:12.807Z,6.70
2023-03-04T14:04:44.049Z,9.53
2023-03-04T14:07:27.474Z,5.80
2023-03-04T14:10:00.163Z,4.30
2023-03-04T14:12:31.543Z,5.67
2023-03-04T14:15:02.833Z,5.37
2023-03-04T14:17:35.218Z,5.33
2023-03-04T14:20:06.622Z,7.30
2023-03-04T14:22:41.699Z,6.50
2023-03-04T14:25:26.757Z,9.33
2023-03-04T14:28:06.695Z,4.27
2023-03-04T14:30:43.342Z,4.50
2023-03-04T14:33:20.255Z,7.53
2023-03-04T14:35:51.104Z,8.63
2023-03-04T14:38:29.781Z,4.97
2023-03-04T14:41:03.766Z,11.77
2023-03-04T14:43:37.453Z,5.20
2023-03-04T14:46:13.812Z,6.33
2023-03-04T14:48:50.504Z,7.37
2023-03-04T14:51:45.749Z,5.60
2023-03-04T14:54:34.245Z,4.47
2023-03-04T14:57:23.978Z,5.63
2023-03-04T14:59:53.172Z,3.00
2023-03-04T15:02:31.530Z,7.60
2023-03-04T15:05:16.461Z,6.63
2023-03-04T15:07:51.788Z,4.93
2023-03-04T15:10:27.386Z,10.83
2023-03-04T15:13:00.884Z,6.50
2023-03-04T15:15:41.124Z,13.30
2023-03-04T15:18:26.243Z,8.00
2023-03-04T15:20:57.899Z,11.30
2023-03-04T15:23:27.412Z,8.17
2023-03-04T15:26:00.620Z,8.70
2023-03-04T15:28:35.415Z,10.93
2023-03-04T15:31:04.143Z,17.53
2023-03-04T15:33:32.965Z,7.17
2023-03-04T15:36:04.173Z,10.90
2023-03-04T15:38:32.965Z,17.43
2023-03-04T15:41:03.182Z,13.33
2023-03-04T15:43:31.831Z,7.70
2023-03-04T15:46:00.261Z,15.33
2023-03-04T15:48:30.408Z,9.93
2023-03-04T15:51:01.679Z,13.87
2023-03-04T15:53:35.274Z,11.03
2023-03-04T15:56:09.266Z,11.87
2023-03-04T15:58:37.735Z,10.80
2023-03-04T16:01:06.696Z,9.73
2023-03-04T16:03:35.350Z,16.37
2023-03-04T16:06:03.818Z,14.00
2023-03-04T16:08:32.484Z,6.33
2023-03-04T16:11:00.875Z,11.20
2023-03-04T16:13:30.709Z,8.40
2023-03-04T16:15:59.158Z,10.50
2023-03-04T16:18:27.664Z,7.87
2023-03-04T16:20:56.183Z,11.10
2023-03-04T16:23:25.890Z,12.20
2023-03-04T16:25:57.518Z,15.37
2023-03-04T16:28:25.924Z,10.10
2023-03-04T16:30:55.795Z,14.87
2023-03-04T16:33:24.337Z,23.13
2023-03-04T16:35:53.220Z,12.77
2023-03-04T16:38:27.123Z,11.07
2023-03-04T16:40:56.887Z,9.70
2023-03-04T16:43:25.531Z,8.67
2023-03-04T16:45:55.736Z,10.33
2023-03-04T16:48:24.209Z,16.77
2023-03-04T16:50:52.660Z,10.33
2023-03-04T16:53:32.953Z,12.70
2023-03-04T16:56:06.221Z,8.47
2023-03-04T16:58:34.994Z,11.87
2023-03-04T17:01:05.386Z,13.03
2023-03-04T17:03:33.977Z,14.03
2023-03-04T17:06:02.300Z,13.87
2023-03-04T17:08:30.780Z,11.77
2023-03-04T17:10:59.233Z,7.60
2023-03-04T17:13:27.675Z,14.10
2023-03-04T17:15:56.127Z,8.97
2023-03-04T17:18:25.937Z,19.43
2023-03-04T17:20:54.497Z,10.20
2023-03-04T17:23:22.888Z,7.60
2023-03-04T17:25:57.525Z,10.20
2023-03-04T17:28:26.658Z,8.17
2023-03-04T17:30:55.585Z,5.80
2023-03-04T17:33:25.841Z,9.67
2023-03-04T17:35:54.424Z,10.03
2023-03-04T17:38:22.901Z,8.80
2023-03-04T17:40:51.421Z,11.80
2023-03-04T17:43:20.090Z,6.40
2023-03-04T17:45:48.503Z,5.50
2023-03-04T17:48:17.023Z,11.30
2023-03-04T17:50:52.318Z,5.03
2023-03-04T17:53:21.894Z,8.73
2023-03-04T17:55:51.379Z,4.10
2023-03-04T17:58:19.995Z,8.17
2023-03-04T18:00:48.975Z,13.03
2023-03-04T18:03:17.541Z,15.90
2023-03-04T18:05:46.004Z,5.93
2023-03-04T18:08:15.875Z,11.43
2023-03-04T18:10:44.570Z,10.80
2023-03-04T18:13:13.082Z,10.27
2023-03-04T18:15:41.631Z,5.10
2023-03-04T18:18:10.074Z,8.10
2023-03-04T18:20:38.576Z,5.57
2023-03-04T18:23:07.078Z,7.47
2023-03-04T18:25:37.102Z,7.93
2023-03-04T18:28:05.724Z,10.83
2023-03-04T18:30:34.407Z,6.60
2023-03-04T18:33:03.871Z,11.57
2023-03-04T18:35:32.592Z,7.77
2023-03-04T18:38:01.498Z,10.37
2023-03-04T18:40:31.664Z,11.90
2023-03-04T18:43:02.893Z,8.67
2023-03-04T18:45:31.611Z,8.00
2023-03-04T18:48:01.114Z,9.80
2023-03-04T18:50:29.581Z,10.50
2023-03-04T18:52:57.968Z,6.30
2023-03-04T18:55:26.871Z,16.23
2023-03-04T18:58:01.333Z,8.00
2023-03-04T19:00:31.250Z,7.53
2023-03-04T19:03:05.538Z,9.37
2023-03-04T19:05:35.068Z,7.97
2023-03-04T19:08:05.020Z,6.03
2023-03-04T19:10:33.941Z,5.37
2023-03-04T19:13:02.400Z,10.43
2023-03-04T19:15:32.366Z,13.03
2023-03-04T19:18:00.930Z,12.37
2023-03-04T19:20:29.362Z,9.30
2023-03-04T19:22:57.820Z,7.20
2023-03-04T19:25:26.176Z,18.53
2023-03-04T19:27:56.504Z,10.77
2023-03-04T19:30:25.124Z,20.97
2023-03-04T19:32:55.471Z,15.67
2023-03-04T19:35:23.974Z,9.43
2023-03-04T19:37:52.523Z,11.83
2023-03-04T19:40:22.119Z,11.93
2023-03-04T19:42:50.582Z,11.20
2023-03-04T19:45:19.230Z,6.03
2023-03-04T19:47:47.656Z,9.80
2023-03-04T19:50:18.752Z,11.33
2023-03-04T19:52:47.218Z,8.80
2023-03-04T19:55:15.711Z,10.00
2023-03-04T19:57:44.124Z,7.30
2023-03-04T20:00:15.237Z,6.87
2023-03-04T20:02:45.657Z,10.70
2023-03-04T20:05:14.287Z,12.40
2023-03-04T20:07:46.695Z,14.43
2023-03-04T20:10:16.209Z,8.80
2023-03-04T20:12:46.221Z,11.83
2023-03-04T20:15:17.193Z,13.07
2023-03-04T20:17:46.524Z,16.80
2023-03-04T20:20:16.663Z,11.53
2023-03-04T20:22:47.956Z,14.17
2023-03-04T20:25:17.821Z,16.50
2023-03-04T20:27:48.017Z,10.50
2023-03-04T20:30:17.519Z,10.17
2023-03-04T20:32:46.223Z,7.37
2023-03-04T20:35:15.355Z,7.70
2023-03-04T20:37:44.281Z,14.20
2023-03-04T20:40:15.196Z,5.80
2023-03-04T20:42:43.767Z,8.40
2023-03-04T20:45:13.096Z,9.00
2023-03-04T20:47:41.737Z,11.73
2023-03-04T20:50:11.923Z,10.17
2023-03-04T20:52:40.504Z,13.10
2023-03-04T20:55:11.023Z,14.27
2023-03-04T20:57:41.091Z,14.23
2023-03-04T21:00:12.161Z,9.47
2023-03-04T21:02:40.731Z,13.77
2023-03-04T21:05:10.138Z,10.30
2023-03-04T21:07:38.648Z,13.07
2023-03-04T21:10:08.551Z,9.20
2023-03-04T21:12:36.971Z,14.40
2023-03-04T21:15:08.857Z,11.97
2023-03-04T21:17:37.270Z,12.07
2023-03-04T21:20:07.050Z,6.30
2023-03-04T21:22:35.505Z,10.87
2023-03-04T21:25:03.921Z,7.50
2023-03-04T21:27:32.310Z,9.37
2023-03-04T21:30:00.704Z,11.90
2023-03-04T21:32:30.715Z,16.67
2023-03-04T21:34:59.389Z,9.50
2023-03-04T21:37:27.946Z,7.63
2023-03-04T21:39:58.126Z,11.30
2023-03-04T21:42:26.924Z,7.70
2023-03-04T21:44:55.547Z,10.70
2023-03-04T21:47:24.384Z,15.47
2023-03-04T21:49:54.381Z,13.70
2023-03-04T21:52:23.730Z,12.90
2023-03-04T21:54:52.121Z,11.93
2023-03-04T21:57:21.370Z,19.43
2023-03-04T21:59:51.671Z,10.03
2023-03-04T22:02:23.708Z,10.90
2023-03-04T22:04:53.836Z,15.97
2023-03-04T22:07:22.273Z,15.97
2023-03-04T22:09:50.621Z,11.60
2023-03-04T22:12:19.716Z,14.00
2023-03-04T22:14:48.336Z,11.67
2023-03-04T22:17:16.895Z,14.43
2023-03-04T22:19:45.379Z,11.47
2023-03-04T22:22:17.965Z,9.87
2023-03-04T22:24:46.512Z,21.27
2023-03-04T22:27:14.966Z,11.90
2023-03-04T22:29:43.410Z,13.20
2023-03-04T22:32:11.852Z,12.17
2023-03-04T22:34:40.971Z,13.40
2023-03-04T22:37:09.361Z,17.43
2023-03-04T22:39:39.136Z,14.07
2023-03-04T22:42:08.081Z,12.63
2023-03-04T22:44:36.419Z,15.63
2023-03-04T22:47:05.169Z,18.63
2023-03-04T22:49:33.574Z,12.00
2023-03-04T22:52:01.954Z,12.27
2023-03-04T22:54:30.667Z,10.30
2023-03-04T22:57:00.430Z,13.03
2023-03-04T22:59:28.751Z,11.40
2023-03-04T23:01:57.247Z,7.00
2023-03-04T23:04:25.758Z,11.93
2023-03-04T23:06:54.278Z,16.83
2023-03-04T23:09:22.759Z,14.03
2023-03-04T23:11:51.139Z,13.13
2023-03-04T23:14:20.926Z,11.87
2023-03-04T23:16:49.418Z,8.70
2023-03-04T23:19:18.791Z,11.10
2023-03-04T23:21:47.498Z,17.63
2023-03-04T23:24:16.563Z,11.20
2023-03-04T23:26:45.225Z,9.20
2023-03-04T23:29:16.077Z,10.90
2023-03-04T23:31:45.819Z,9.10
2023-03-04T23:34:14.674Z,11.17
2023-03-04T23:36:43.472Z,10.90
2023-03-04T23:39:14.305Z,14.47
2023-03-04T23:41:43.367Z,13.60
2023-03-04T23:44:12.924Z,14.87
2023-03-04T23:46:42.021Z,23.13
2023-03-04T23:49:17.028Z,16.70
2023-03-04T23:51:46.229Z,11.57
2023-03-04T23:54:15.354Z,10.83
2023-03-04T23:56:43.767Z,9.50
2023-03-04T23:59:12.933Z,9.00
